Time;durP1;ratioP1;P1;durP2;ratioP2;P2;SDS_P1;SDS_P2;PMS_P1;PMS_P2;Temp;Humidity;BMP_temperature;BMP_pressure;BME280_temperature;BME280_humidity;BME280_pressure;Samples;Min_cycle;Max_cycle;Signal;HPM_P1;HPM_P2
2024/02/22 00:01:53;;;;;;;0.10;0.10;;;10.30;90.40;;;;;;5081519;28;20028;-82
2024/02/22 00:04:20;;;;;;;0.00;0.00;;;10.20;90.40;;;;;;5077838;28;20110;-81
2024/02/22 00:06:46;;;;;;;0.00;0.00;;;10.20;90.10;;;;;;5084248;28;20054;-81
2024/02/22 00:09:12;;;;;;;0.08;0.08;;;10.20;90.40;;;;;;5083181;28;20024;-80
2024/02/22 00:11:38;;;;;;;0.10;0.10;;;10.20;90.40;;;;;;5082461;28;20512;-81
2024/02/22 00:14:03;;;;;;;0.05;0.05;;;10.20;90.60;;;;;;5079968;28;20099;-81
2024/02/22 00:16:29;;;;;;;0.10;0.10;;;10.20;90.50;;;;;;5082788;28;20036;-81
2024/02/22 00:18:55;;;;;;;0.10;0.10;;;10.30;90.30;;;;;;5078969;28;20027;-81
2024/02/22 00:21:21;;;;;;;0.00;0.00;;;10.30;90.30;;;;;;5082590;28;20796;-81
2024/02/22 00:23:46;;;;;;;0.10;0.10;;;10.30;90.00;;;;;;5079209;28;20039;-81
2024/02/22 00:26:13;;;;;;;0.00;0.00;;;10.30;90.20;;;;;;5080902;28;20067;-80
2024/02/22 00:28:39;;;;;;;0.10;0.10;;;10.30;90.30;;;;;;5071515;28;20021;-80
2024/02/22 00:31:05;;;;;;;0.10;0.10;;;10.30;90.70;;;;;;5081011;28;20055;-80
2024/02/22 00:33:31;;;;;;;0.00;0.00;;;10.30;90.50;;;;;;5083397;28;20742;-80
2024/02/22 00:35:56;;;;;;;0.10;0.10;;;10.30;90.50;;;;;;5080795;28;20027;-80
2024/02/22 00:38:22;;;;;;;0.10;0.10;;;10.30;90.30;;;;;;5080289;28;20038;-80
2024/02/22 00:40:48;;;;;;;0.10;0.10;;;10.30;90.30;;;;;;5077854;28;20047;-80
2024/02/22 00:43:13;;;;;;;0.00;0.00;;;10.30;90.30;;;;;;5075589;28;20024;-80
2024/02/22 00:45:39;;;;;;;1.30;1.20;;;10.30;90.20;;;;;;5080264;28;20822;-81
2024/02/22 00:48:05;;;;;;;0.10;0.10;;;10.40;90.00;;;;;;5082545;28;20028;-81
2024/02/22 00:50:31;;;;;;;0.10;0.10;;;10.30;90.10;;;;;;5081846;28;20079;-80
2024/02/22 00:52:56;;;;;;;0.10;0.10;;;10.30;90.10;;;;;;5081101;28;20626;-80
2024/02/22 00:55:22;;;;;;;0.00;0.00;;;10.40;89.50;;;;;;5077094;28;20753;-80
2024/02/22 00:57:48;;;;;;;0.10;0.10;;;10.40;89.10;;;;;;5077236;28;20075;-81
2024/02/22 01:00:14;;;;;;;0.00;0.00;;;10.50;89.00;;;;;;5076711;28;20044;-80
2024/02/22 01:02:40;;;;;;;0.00;0.00;;;10.40;89.00;;;;;;5079501;28;20031;-81
2024/02/22 01:05:06;;;;;;;0.08;0.08;;;10.40;89.00;;;;;;5084438;28;20047;-81
2024/02/22 01:07:32;;;;;;;0.10;0.10;;;10.50;89.00;;;;;;5080098;28;20032;-81
2024/02/22 01:09:58;;;;;;;0.00;0.00;;;10.50;88.40;;;;;;5078025;28;20032;-81
2024/02/22 01:12:24;;;;;;;0.10;0.10;;;10.50;88.40;;;;;;5075681;28;20060;-82
2024/02/22 01:14:49;;;;;;;0.00;0.00;;;10.50;88.10;;;;;;5075481;28;20594;-81
2024/02/22 01:17:16;;;;;;;0.10;0.10;;;10.50;88.20;;;;;;5078104;28;20511;-81
2024/02/22 01:19:45;;;;;;;7.70;1.75;;;10.50;88.70;;;;;;5076617;28;20564;-81
2024/02/22 01:22:11;;;;;;;0.10;0.10;;;10.50;89.00;;;;;;5078523;28;20032;-81
2024/02/22 01:24:37;;;;;;;0.00;0.00;;;10.60;88.60;;;;;;5084337;28;20546;-81
2024/02/22 01:27:03;;;;;;;0.03;0.03;;;10.50;89.00;;;;;;5075742;28;20032;-81
2024/02/22 01:29:29;;;;;;;0.10;0.10;;;10.50;89.20;;;;;;5086146;28;20741;-81
2024/02/22 01:31:55;;;;;;;0.00;0.00;;;10.50;89.40;;;;;;5080989;28;20115;-81
2024/02/22 01:34:20;;;;;;;0.00;0.00;;;10.50;89.90;;;;;;5083909;28;20513;-81
2024/02/22 01:36:47;;;;;;;0.10;0.10;;;10.50;89.70;;;;;;5079691;28;20039;-80
2024/02/22 01:39:13;;;;;;;0.00;0.00;;;10.50;89.70;;;;;;5073824;28;20055;-79
2024/02/22 01:41:39;;;;;;;0.00;0.00;;;10.50;89.70;;;;;;5084576;28;20594;-79
2024/02/22 01:44:04;;;;;;;0.00;0.00;;;10.50;89.40;;;;;;5088481;28;20023;-78
2024/02/22 01:46:31;;;;;;;0.10;0.10;;;10.50;89.30;;;;;;5077833;28;20047;-79
2024/02/22 01:48:56;;;;;;;0.00;0.00;;;10.50;89.50;;;;;;5081873;28;20117;-78
2024/02/22 01:51:23;;;;;;;1.98;1.27;;;10.50;89.30;;;;;;5083330;28;20057;-79
2024/02/22 01:53:50;;;;;;;0.30;0.30;;;10.50;89.20;;;;;;5080538;28;20067;-78
2024/02/22 01:56:19;;;;;;;0.00;0.00;;;10.50;89.50;;;;;;5076296;28;20169;-78
2024/02/22 01:58:47;;;;;;;0.00;0.00;;;10.50;88.90;;;;;;5080744;28;20511;-79
2024/02/22 02:01:13;;;;;;;0.00;0.00;;;10.50;89.00;;;;;;5082933;28;20036;-78
2024/02/22 02:03:40;;;;;;;0.00;0.00;;;10.50;89.40;;;;;;5084012;28;20105;-79
2024/02/22 02:06:05;;;;;;;0.05;0.05;;;10.50;89.30;;;;;;5081409;28;20082;-80
2024/02/22 02:08:32;;;;;;;0.00;0.00;;;10.50;89.10;;;;;;5089155;28;20024;-81
2024/02/22 02:10:58;;;;;;;0.00;0.00;;;10.50;89.20;;;;;;5078829;28;20799;-81
2024/02/22 02:13:24;;;;;;;0.00;0.00;;;10.50;89.30;;;;;;5081751;28;20051;-81
2024/02/22 02:15:50;;;;;;;0.00;0.00;;;10.50;89.40;;;;;;5077953;28;20036;-81
2024/02/22 02:18:15;;;;;;;0.00;0.00;;;10.50;89.30;;;;;;5089089;28;20510;-82
2024/02/22 02:21:10;;;;;;;0.00;0.00;;;10.60;89.30;;;;;;5078823;28;20037;-79
2024/02/22 02:24:05;;;;;;;0.00;0.00;;;10.60;89.20;;;;;;5081650;28;20036;-79
2024/02/22 02:26:31;;;;;;;0.10;0.10;;;10.50;89.30;;;;;;5075311;28;20038;-81
2024/02/22 02:28:56;;;;;;;0.10;0.10;;;10.50;89.40;;;;;;5083026;28;20029;-80
2024/02/22 02:31:22;;;;;;;0.00;0.00;;;10.50;89.40;;;;;;5084018;28;20444;-81
2024/02/22 02:33:47;;;;;;;0.00;0.00;;;10.50;89.20;;;;;;5088829;28;20881;-80
2024/02/22 02:36:13;;;;;;;0.95;0.90;;;10.50;89.00;;;;;;5082496;28;20043;-80
2024/02/22 02:38:39;;;;;;;0.17;0.17;;;10.50;89.00;;;;;;5085952;28;20024;-81
2024/02/22 02:41:05;;;;;;;0.10;0.10;;;10.60;88.80;;;;;;5086158;28;20559;-81
2024/02/22 02:43:30;;;;;;;0.10;0.10;;;10.60;89.20;;;;;;5083137;28;20032;-81
2024/02/22 02:45:56;;;;;;;0.10;0.10;;;10.60;89.10;;;;;;5079802;28;20032;-82
2024/02/22 02:48:22;;;;;;;0.10;0.10;;;10.50;89.40;;;;;;5085398;28;20486;-83
2024/02/22 02:50:47;;;;;;;0.03;0.03;;;10.50;89.10;;;;;;5073002;28;20036;-83
2024/02/22 02:53:13;;;;;;;0.00;0.00;;;10.60;88.90;;;;;;5087432;28;20049;-83
2024/02/22 02:55:39;;;;;;;0.10;0.10;;;10.60;88.50;;;;;;5077039;28;20028;-83
2024/02/22 02:58:08;;;;;;;0.00;0.00;;;10.60;88.70;;;;;;5081471;28;20051;-82
2024/02/22 03:00:34;;;;;;;0.32;0.32;;;10.60;88.90;;;;;;5083804;28;20028;-82
2024/02/22 03:03:00;;;;;;;0.00;0.00;;;10.60;88.60;;;;;;5074430;28;20031;-83
2024/02/22 03:05:26;;;;;;;0.03;0.03;;;10.60;89.20;;;;;;5075052;28;20028;-83
2024/02/22 03:07:55;;;;;;;0.08;0.08;;;10.60;88.20;;;;;;5083398;28;20031;-83
2024/02/22 03:10:21;;;;;;;0.10;0.10;;;10.70;88.00;;;;;;5074415;28;20017;-80
2024/02/22 03:12:47;;;;;;;0.10;0.10;;;10.60;88.20;;;;;;5080428;28;20055;-80
2024/02/22 03:15:13;;;;;;;0.10;0.10;;;10.60;88.00;;;;;;5084622;28;20016;-79
2024/02/22 03:17:39;;;;;;;0.00;0.00;;;10.60;87.90;;;;;;5080219;28;20483;-79
2024/02/22 03:20:10;;;;;;;0.00;0.00;;;10.60;87.80;;;;;;5079084;28;20116;-80
2024/02/22 03:22:39;;;;;;;0.10;0.10;;;10.60;88.10;;;;;;5077156;28;20047;-80
2024/02/22 03:25:06;;;;;;;0.10;0.10;;;10.60;87.60;;;;;;5086562;28;20028;-79
2024/02/22 03:27:34;;;;;;;0.10;0.10;;;10.70;87.40;;;;;;5076249;28;20028;-80
2024/02/22 03:30:03;;;;;;;0.10;0.10;;;10.70;87.30;;;;;;5084412;28;20024;-80
2024/02/22 03:32:29;;;;;;;0.00;0.00;;;10.70;86.80;;;;;;5082466;28;20028;-80
2024/02/22 03:34:54;;;;;;;0.20;0.20;;;10.70;86.70;;;;;;5087745;28;20045;-80
2024/02/22 03:37:20;;;;;;;0.07;0.07;;;10.80;86.70;;;;;;5084145;28;20047;-81
2024/02/22 03:39:49;;;;;;;0.00;0.00;;;10.80;86.60;;;;;;5081387;28;20040;-81
2024/02/22 03:42:19;;;;;;;0.00;0.00;;;10.70;87.00;;;;;;5087691;28;20023;-81
2024/02/22 03:44:44;;;;;;;0.10;0.10;;;10.80;87.00;;;;;;5079420;28;20043;-81
2024/02/22 03:47:11;;;;;;;0.00;0.00;;;10.80;86.40;;;;;;5081723;28;20036;-81
2024/02/22 03:49:37;;;;;;;0.13;0.13;;;10.80;86.10;;;;;;5081888;28;20767;-82
2024/02/22 03:52:04;;;;;;;0.00;0.00;;;10.80;86.20;;;;;;5083679;28;20047;-82
2024/02/22 03:54:30;;;;;;;;;;;10.80;85.60;;;;;;5076928;28;20032;-81
2024/02/22 03:56:57;;;;;;;0.00;0.00;;;10.80;85.40;;;;;;5081380;28;19916;-80
2024/02/22 03:59:23;;;;;;;0.10;0.10;;;10.80;85.90;;;;;;5079001;28;20091;-80
2024/02/22 04:01:50;;;;;;;0.03;0.03;;;10.70;86.70;;;;;;5078997;28;20036;-80
2024/02/22 04:04:15;;;;;;;0.00;0.00;;;10.70;87.00;;;;;;5081504;28;20047;-81
2024/02/22 04:06:41;;;;;;;0.10;0.10;;;10.70;87.10;;;;;;5082514;28;20020;-81
2024/02/22 04:09:07;;;;;;;0.03;0.03;;;10.70;87.20;;;;;;5084465;28;20024;-81
2024/02/22 04:11:33;;;;;;;0.10;0.10;;;10.70;86.90;;;;;;5076050;28;20513;-81
2024/02/22 04:13:58;;;;;;;0.00;0.00;;;10.70;86.60;;;;;;5082810;28;20029;-81
2024/02/22 04:16:24;;;;;;;0.00;0.00;;;10.70;86.90;;;;;;5079401;28;20027;-81
2024/02/22 04:18:50;;;;;;;0.10;0.10;;;10.60;86.90;;;;;;5080982;28;20036;-80
2024/02/22 04:21:16;;;;;;;0.40;0.40;;;10.70;86.40;;;;;;5083680;28;20032;-80
2024/02/22 04:23:41;;;;;;;0.00;0.00;;;10.70;86.20;;;;;;5079805;28;20032;-80
2024/02/22 04:26:07;;;;;;;0.00;0.00;;;10.70;86.50;;;;;;5081509;28;20027;-80
2024/02/22 04:28:33;;;;;;;0.00;0.00;;;10.60;86.60;;;;;;5079364;28;20054;-80
2024/02/22 04:30:58;;;;;;;0.00;0.00;;;10.60;86.60;;;;;;5085062;28;20028;-80
2024/02/22 04:33:24;;;;;;;0.10;0.10;;;10.60;86.60;;;;;;5079762;28;20024;-81
2024/02/22 04:35:50;;;;;;;0.00;0.00;;;10.70;86.00;;;;;;5083690;28;20106;-81
2024/02/22 04:38:15;;;;;;;0.00;0.00;;;10.70;86.00;;;;;;5085685;28;20036;-80
2024/02/22 04:40:41;;;;;;;0.10;0.10;;;10.60;86.10;;;;;;5089991;28;20028;-80
2024/02/22 04:43:07;;;;;;;0.00;0.00;;;10.60;86.10;;;;;;5083293;28;20020;-80
2024/02/22 04:45:36;;;;;;;0.00;0.00;;;10.60;86.40;;;;;;5085722;28;20031;-80
2024/02/22 04:48:03;;;;;;;0.47;0.47;;;10.60;86.50;;;;;;5083060;28;20028;-79
2024/02/22 04:50:31;;;;;;;0.08;0.08;;;10.60;86.40;;;;;;5086345;28;20023;-80
2024/02/22 04:52:57;;;;;;;0.00;0.00;;;10.60;86.50;;;;;;5082613;28;20027;-80
2024/02/22 04:55:22;;;;;;;0.00;0.00;;;10.60;86.70;;;;;;5078834;28;20020;-78
2024/02/22 04:57:48;;;;;;;0.20;0.20;;;10.60;86.50;;;;;;5080122;28;20125;-79
2024/02/22 05:00:15;;;;;;;0.00;0.00;;;10.60;86.10;;;;;;5080228;28;20211;-78
2024/02/22 05:02:41;;;;;;;0.40;0.40;;;10.60;86.10;;;;;;5082710;28;20024;-79
2024/02/22 05:05:06;;;;;;;0.00;0.00;;;10.70;86.10;;;;;;5081633;28;20039;-79
2024/02/22 05:07:32;;;;;;;0.00;0.00;;;10.70;85.60;;;;;;5080601;28;20052;-79
2024/02/22 05:10:00;;;;;;;0.00;0.00;;;10.60;85.80;;;;;;5071613;28;20032;-80
2024/02/22 05:12:25;;;;;;;0.00;0.00;;;10.70;85.80;;;;;;5080795;28;20441;-80
2024/02/22 05:14:52;;;;;;;0.00;0.00;;;10.70;85.60;;;;;;5082859;28;20094;-80
2024/02/22 05:17:19;;;;;;;0.00;0.00;;;10.70;85.20;;;;;;5082759;28;20039;-80
2024/02/22 05:19:45;;;;;;;0.03;0.03;;;10.60;85.60;;;;;;5081464;28;20036;-80
2024/02/22 05:22:10;;;;;;;0.10;0.10;;;10.60;85.50;;;;;;5076721;28;20523;-79
2024/02/22 05:24:36;;;;;;;0.00;0.00;;;10.60;86.10;;;;;;5086872;28;20036;-79
2024/02/22 05:27:01;;;;;;;0.07;0.07;;;10.70;85.50;;;;;;5079797;28;20036;-79
2024/02/22 05:29:27;;;;;;;0.00;0.00;;;10.70;85.60;;;;;;5088672;28;20558;-79
2024/02/22 05:31:55;;;;;;;0.03;0.03;;;10.60;85.40;;;;;;5076818;28;20028;-81
2024/02/22 05:34:21;;;;;;;0.00;0.00;;;10.60;86.10;;;;;;5088891;28;20028;-80
2024/02/22 05:36:47;;;;;;;0.00;0.00;;;10.60;86.10;;;;;;5079880;28;20032;-79
2024/02/22 05:39:13;;;;;;;0.00;0.00;;;10.60;85.80;;;;;;5085120;28;20483;-80
2024/02/22 05:41:38;;;;;;;0.00;0.00;;;10.60;86.10;;;;;;5084692;28;20088;-82
2024/02/22 05:44:04;;;;;;;0.20;0.20;;;10.60;86.10;;;;;;5082860;28;20028;-80
2024/02/22 05:46:30;;;;;;;0.00;0.00;;;10.60;86.60;;;;;;5083216;28;20080;-80
2024/02/22 05:48:55;;;;;;;0.10;0.10;;;10.50;87.20;;;;;;5079591;28;20107;-79
2024/02/22 05:51:21;;;;;;;0.00;0.00;;;10.50;87.90;;;;;;5080294;28;20157;-79
2024/02/22 05:53:48;;;;;;;0.10;0.10;;;10.50;88.20;;;;;;5081284;28;20043;-79
2024/02/22 05:56:14;;;;;;;0.10;0.10;;;10.50;88.40;;;;;;5077110;28;20039;-78
2024/02/22 05:58:40;;;;;;;0.38;0.38;;;10.50;88.10;;;;;;5082047;28;20181;-80
2024/02/22 06:01:06;;;;;;;0.10;0.10;;;10.50;87.50;;;;;;5072903;28;20040;-83
2024/02/22 06:03:32;;;;;;;2.23;1.60;;;10.50;87.70;;;;;;5079539;28;20032;-81
2024/02/22 06:05:58;;;;;;;0.28;0.28;;;10.50;88.00;;;;;;5085187;28;20024;-80
2024/02/22 06:08:24;;;;;;;0.87;0.60;;;10.50;88.00;;;;;;5083081;28;20020;-80
2024/02/22 06:10:52;;;;;;;0.20;0.20;;;10.60;85.50;;;;;;5077245;28;20036;-80
2024/02/22 06:13:17;;;;;;;0.10;0.10;;;10.70;82.50;;;;;;5075494;28;20036;-80
2024/02/22 06:15:43;;;;;;;1.83;1.70;;;10.70;84.10;;;;;;5078947;28;20085;-81
2024/02/22 06:18:09;;;;;;;0.43;0.43;;;10.60;85.10;;;;;;5081252;28;20028;-80
2024/02/22 06:20:34;;;;;;;0.30;0.30;;;10.60;84.90;;;;;;5077094;28;20038;-80
2024/02/22 06:23:00;;;;;;;0.07;0.07;;;10.70;83.50;;;;;;5079875;28;20085;-79
2024/02/22 06:25:28;;;;;;;0.00;0.00;;;10.70;82.30;;;;;;5072841;28;20093;-79
2024/02/22 06:27:53;;;;;;;0.20;0.20;;;10.70;83.00;;;;;;5077638;28;20101;-79
2024/02/22 06:30:19;;;;;;;0.08;0.08;;;10.70;82.60;;;;;;5080638;28;20035;-79
2024/02/22 06:32:45;;;;;;;0.00;0.00;;;10.70;81.90;;;;;;5080106;28;20032;-79
2024/02/22 06:35:11;;;;;;;0.10;0.10;;;10.80;80.20;;;;;;5072974;28;20058;-79
2024/02/22 06:37:36;;;;;;;0.10;0.10;;;10.80;81.70;;;;;;5067156;28;20168;-79
2024/02/22 06:40:07;;;;;;;0.20;0.20;;;10.70;83.30;;;;;;5066927;28;20028;-79
2024/02/22 06:42:35;;;;;;;0.10;0.10;;;10.60;83.90;;;;;;5069489;28;20074;-79
2024/02/22 06:45:02;;;;;;;0.00;0.00;;;10.50;84.30;;;;;;5069248;28;20028;-78
2024/02/22 06:47:28;;;;;;;0.00;0.00;;;10.50;84.80;;;;;;5071340;28;20059;-79
2024/02/22 06:49:54;;;;;;;0.00;0.00;;;10.50;85.10;;;;;;5070365;28;20081;-78
2024/02/22 06:52:20;;;;;;;0.10;0.10;;;10.40;85.80;;;;;;5084529;28;20032;-79
2024/02/22 06:54:45;;;;;;;0.00;0.00;;;10.40;85.80;;;;;;5085187;28;20019;-80
2024/02/22 06:57:12;;;;;;;0.00;0.00;;;10.30;86.70;;;;;;5087043;28;20036;-79
2024/02/22 06:59:38;;;;;;;0.00;0.00;;;10.40;86.20;;;;;;5081346;28;20115;-81
2024/02/22 07:02:05;;;;;;;0.10;0.10;;;10.40;85.80;;;;;;5077118;28;20088;-81
2024/02/22 07:04:31;;;;;;;0.00;0.00;;;10.40;85.70;;;;;;5077566;28;20039;-80
2024/02/22 07:06:57;;;;;;;0.00;0.00;;;10.30;86.00;;;;;;5085495;28;20527;-80
2024/02/22 07:09:23;;;;;;;0.00;0.00;;;10.50;84.90;;;;;;5087084;28;20031;-79
2024/02/22 07:11:49;;;;;;;0.10;0.10;;;10.60;83.60;;;;;;5080832;28;20025;-79
2024/02/22 07:14:14;;;;;;;0.10;0.10;;;10.70;83.00;;;;;;5086716;28;20821;-79
2024/02/22 07:16:45;;;;;;;0.10;0.10;;;10.70;83.10;;;;;;5088184;28;20029;-79
2024/02/22 07:19:11;;;;;;;2.30;1.65;;;10.70;83.20;;;;;;5094306;28;20046;-77
2024/02/22 07:21:37;;;;;;;0.30;0.30;;;10.70;83.70;;;;;;5080276;28;20113;-79
2024/02/22 07:24:03;;;;;;;0.10;0.10;;;10.70;84.10;;;;;;5089965;28;20036;-77
2024/02/22 07:26:32;;;;;;;0.10;0.10;;;10.70;83.80;;;;;;5072589;28;20031;-80
2024/02/22 07:28:59;;;;;;;0.10;0.10;;;10.70;84.00;;;;;;5071521;28;20032;-80
2024/02/22 07:31:25;;;;;;;0.28;0.28;;;10.70;84.60;;;;;;5077981;28;20024;-80
2024/02/22 07:33:52;;;;;;;0.37;0.37;;;10.70;83.90;;;;;;5097055;28;20061;-80
2024/02/22 07:36:18;;;;;;;0.08;0.08;;;10.80;83.40;;;;;;5077783;28;20510;-80
2024/02/22 07:38:46;;;;;;;0.00;0.00;;;10.80;83.50;;;;;;5073659;28;20028;-80
2024/02/22 07:41:15;;;;;;;0.00;0.00;;;10.70;83.70;;;;;;5093798;28;20027;-79
2024/02/22 07:43:42;;;;;;;0.10;0.10;;;10.70;84.30;;;;;;5089739;28;20105;-80
2024/02/22 07:46:10;;;;;;;0.10;0.10;;;10.70;83.70;;;;;;5085883;28;20028;-80
2024/02/22 07:48:39;;;;;;;0.10;0.10;;;10.70;83.90;;;;;;5077819;28;20024;-80
2024/02/22 07:51:06;;;;;;;0.05;0.05;;;10.70;85.00;;;;;;5084123;28;20873;-80
2024/02/22 07:53:34;;;;;;;0.00;0.00;;;10.70;85.00;;;;;;5077579;28;20526;-80
2024/02/22 07:56:04;;;;;;;0.10;0.10;;;10.70;85.00;;;;;;5083836;28;20127;-80
2024/02/22 07:58:45;;;;;;;0.00;0.00;;;10.80;85.40;;;;;;5078532;28;20159;-79
2024/02/22 08:01:11;;;;;;;0.10;0.10;;;10.70;85.70;;;;;;5075891;28;20027;-79
2024/02/22 08:03:37;;;;;;;0.00;0.00;;;10.70;85.50;;;;;;5081901;28;20515;-79
2024/02/22 08:06:03;;;;;;;0.00;0.00;;;10.70;85.40;;;;;;5075311;28;20035;-79
2024/02/22 08:08:29;;;;;;;0.00;0.00;;;10.70;85.10;;;;;;5077294;28;20447;-80
2024/02/22 08:10:55;;;;;;;0.00;0.00;;;10.70;84.90;;;;;;5076386;28;20054;-80
2024/02/22 08:13:21;;;;;;;0.00;0.00;;;10.70;84.80;;;;;;5076840;28;20035;-79
2024/02/22 08:15:47;;;;;;;0.00;0.00;;;10.80;84.40;;;;;;5081594;28;20052;-80
2024/02/22 08:18:13;;;;;;;0.28;0.28;;;10.80;84.20;;;;;;5087764;28;20043;-79
2024/02/22 08:20:38;;;;;;;0.03;0.03;;;10.90;84.00;;;;;;5088341;28;20024;-80
2024/02/22 08:23:08;;;;;;;0.10;0.10;;;10.90;84.00;;;;;;5076805;28;20755;-79
2024/02/22 08:25:37;;;;;;;0.10;0.10;;;11.00;84.20;;;;;;5075891;28;20107;-80
2024/02/22 08:28:04;;;;;;;0.10;0.10;;;11.00;84.10;;;;;;5070770;28;20078;-80
2024/02/22 08:30:30;;;;;;;0.10;0.10;;;11.10;83.30;;;;;;5078404;28;20602;-80
2024/02/22 08:32:56;;;;;;;0.00;0.00;;;11.20;82.90;;;;;;5079302;28;20063;-79
2024/02/22 08:35:22;;;;;;;0.03;0.03;;;11.30;82.80;;;;;;5076198;28;20503;-80
2024/02/22 08:37:47;;;;;;;0.22;0.22;;;11.50;81.00;;;;;;5073479;28;20270;-80
2024/02/22 08:40:13;;;;;;;0.10;0.10;;;11.50;80.70;;;;;;5077530;28;20779;-80
2024/02/22 08:42:39;;;;;;;0.00;0.00;;;11.50;81.10;;;;;;5080843;28;20493;-80
2024/02/22 08:45:05;;;;;;;0.00;0.00;;;11.60;81.00;;;;;;5079349;28;20035;-80
2024/02/22 08:47:31;;;;;;;0.10;0.10;;;11.70;80.10;;;;;;5072589;28;20021;-80
2024/02/22 08:49:58;;;;;;;0.00;0.00;;;11.80;80.00;;;;;;5070912;28;20024;-80
2024/02/22 08:52:24;;;;;;;0.00;0.00;;;11.80;79.70;;;;;;5068371;28;20028;-80
2024/02/22 08:54:51;;;;;;;0.10;0.10;;;11.80;79.30;;;;;;5070970;28;20028;-80
2024/02/22 08:57:17;;;;;;;0.00;0.00;;;11.80;78.90;;;;;;5069834;28;20859;-80
2024/02/22 08:59:43;;;;;;;0.03;0.03;;;11.80;78.40;;;;;;5082284;28;20123;-80
2024/02/22 09:02:09;;;;;;;0.00;0.00;;;12.00;78.10;;;;;;5078152;28;20111;-80
2024/02/22 09:04:35;;;;;;;0.00;0.00;;;12.20;77.60;;;;;;5079745;28;20028;-80
2024/02/22 09:07:01;;;;;;;0.10;0.10;;;12.20;77.40;;;;;;5088643;28;20028;-79
2024/02/22 09:09:28;;;;;;;0.00;0.00;;;12.30;76.80;;;;;;5078139;28;20112;-80
2024/02/22 09:11:54;;;;;;;0.00;0.00;;;12.40;77.00;;;;;;5077948;28;20038;-80
2024/02/22 09:14:20;;;;;;;0.00;0.00;;;12.40;76.80;;;;;;5081191;28;20021;-80
2024/02/22 09:16:46;;;;;;;0.00;0.00;;;12.30;76.70;;;;;;5079717;28;20031;-80
2024/02/22 09:19:11;;;;;;;0.00;0.00;;;12.20;77.50;;;;;;5077112;28;20049;-80
2024/02/22 09:21:37;;;;;;;0.10;0.10;;;12.30;77.30;;;;;;5080176;28;20119;-80
2024/02/22 09:24:04;;;;;;;0.00;0.00;;;12.40;76.30;;;;;;5075947;28;20033;-80
2024/02/22 09:26:29;;;;;;;0.00;0.00;;;12.40;75.60;;;;;;5082789;28;20032;-80
2024/02/22 09:28:55;;;;;;;0.10;0.10;;;12.40;75.20;;;;;;5067970;28;20270;-80
2024/02/22 09:31:21;;;;;;;0.00;0.00;;;12.50;75.30;;;;;;5079763;28;20099;-80
2024/02/22 09:33:47;;;;;;;0.37;0.30;;;12.50;75.40;;;;;;5075020;28;20083;-80
2024/02/22 09:36:13;;;;;;;0.00;0.00;;;12.50;76.00;;;;;;5072711;28;20580;-80
2024/02/22 09:38:39;;;;;;;0.10;0.10;;;12.60;75.50;;;;;;5084518;28;20075;-80
2024/02/22 09:41:05;;;;;;;2.80;0.83;;;12.70;75.30;;;;;;5073553;28;20028;-79
2024/02/22 09:43:32;;;;;;;0.10;0.10;;;12.90;74.50;;;;;;5069346;28;20020;-80
2024/02/22 09:45:58;;;;;;;0.00;0.00;;;13.00;73.40;;;;;;5072719;28;20027;-80
2024/02/22 09:48:23;;;;;;;0.00;0.00;;;13.20;72.60;;;;;;5070402;28;20025;-79
2024/02/22 09:50:49;;;;;;;0.00;0.00;;;13.30;73.20;;;;;;5078924;28;20047;-80
2024/02/22 09:53:15;;;;;;;0.00;0.00;;;13.50;71.60;;;;;;5068770;28;20025;-80
2024/02/22 09:55:41;;;;;;;0.00;0.00;;;13.80;70.40;;;;;;5080700;28;20030;-80
2024/02/22 09:58:06;;;;;;;0.00;0.00;;;14.20;68.90;;;;;;5077894;28;20048;-80
2024/02/22 10:00:33;;;;;;;0.00;0.00;;;14.60;67.00;;;;;;5077891;28;20498;-80
2024/02/22 10:03:00;;;;;;;;;;;14.70;66.90;;;;;;5076541;28;20024;-80
2024/02/22 10:05:38;;;;;;;0.08;0.08;;;14.30;66.90;;;;;;5078470;28;19947;-81
2024/02/22 10:08:13;;;;;;;0.00;0.00;;;13.90;67.70;;;;;;5080448;28;20024;-80
2024/02/22 10:10:44;;;;;;;0.10;0.10;;;13.60;67.90;;;;;;5075639;28;20082;-81
2024/02/22 10:13:20;;;;;;;0.00;0.00;;;13.50;68.80;;;;;;5082351;28;20027;-80
2024/02/22 10:15:46;;;;;;;0.00;0.00;;;13.30;69.60;;;;;;5075063;28;20028;-79
2024/02/22 10:18:12;;;;;;;0.20;0.20;;;13.20;68.80;;;;;;5080930;28;20024;-80
2024/02/22 10:20:37;;;;;;;0.00;0.00;;;13.10;68.00;;;;;;5083110;28;20086;-80
2024/02/22 10:23:07;;;;;;;0.00;0.00;;;13.10;68.50;;;;;;5088042;28;20036;-79
2024/02/22 10:25:34;;;;;;;0.00;0.00;;;13.00;69.30;;;;;;5071934;28;20020;-80
2024/02/22 10:28:00;;;;;;;0.03;0.03;;;13.00;68.40;;;;;;5070644;28;20818;-79
2024/02/22 10:30:26;;;;;;;0.00;0.00;;;13.00;69.30;;;;;;5079355;28;20021;-80
2024/02/22 10:32:55;;;;;;;0.00;0.00;;;13.00;69.00;;;;;;5083079;28;20026;-80
2024/02/22 10:35:23;;;;;;;0.00;0.00;;;13.00;69.10;;;;;;5082305;28;20479;-80
2024/02/22 10:37:53;;;;;;;0.10;0.10;;;13.00;68.50;;;;;;5086569;28;20059;-80
2024/02/22 10:40:19;;;;;;;0.00;0.00;;;13.00;68.80;;;;;;5081364;28;20035;-80
2024/02/22 10:42:48;;;;;;;0.00;0.00;;;12.90;68.60;;;;;;5076311;28;20031;-80
2024/02/22 10:45:14;;;;;;;0.00;0.00;;;12.90;68.80;;;;;;5086800;28;20032;-80
2024/02/22 10:47:40;;;;;;;0.00;0.00;;;12.90;69.10;;;;;;5076961;28;20035;-80
2024/02/22 10:50:07;;;;;;;0.00;0.00;;;13.00;68.90;;;;;;5082616;28;20020;-80
2024/02/22 10:52:39;;;;;;;0.00;0.00;;;13.00;69.40;;;;;;5081660;28;20076;-80
2024/02/22 10:55:15;;;;;;;0.00;0.00;;;13.10;69.20;;;;;;5083253;28;20032;-80
2024/02/22 10:57:49;;;;;;;0.10;0.10;;;13.10;68.90;;;;;;5070454;28;20113;-80
2024/02/22 11:00:16;;;;;;;0.00;0.00;;;13.40;67.80;;;;;;5075707;28;20025;-80
2024/02/22 11:02:43;;;;;;;0.00;0.00;;;13.70;67.20;;;;;;5076804;28;20078;-79
2024/02/22 11:05:11;;;;;;;0.00;0.00;;;13.80;67.10;;;;;;5080632;28;20025;-80
2024/02/22 11:08:03;;;;;;;0.00;0.00;;;13.90;66.70;;;;;;5090158;28;20031;-80
2024/02/22 11:10:29;;;;;;;0.00;0.00;;;13.80;66.80;;;;;;5081003;28;20558;-80
2024/02/22 11:13:04;;;;;;;0.00;0.00;;;13.70;66.70;;;;;;5078092;28;20060;-80
2024/02/22 11:15:35;;;;;;;0.03;0.03;;;13.70;66.60;;;;;;5081709;28;20032;-80
2024/02/22 11:18:02;;;;;;;0.10;0.10;;;13.70;66.60;;;;;;5086057;28;20085;-80
2024/02/22 11:20:35;;;;;;;0.00;0.00;;;13.80;66.80;;;;;;5082629;28;20035;-80
2024/02/22 11:23:21;;;;;;;0.00;0.00;;;14.00;66.10;;;;;;5077279;28;21100;-80
2024/02/22 11:25:46;;;;;;;0.00;0.00;;;14.10;66.50;;;;;;5075642;28;20089;-80
2024/02/22 11:28:13;;;;;;;0.00;0.00;;;14.30;66.40;;;;;;5077889;28;20084;-80
2024/02/22 11:30:44;;;;;;;0.00;0.00;;;14.50;65.10;;;;;;5077646;28;20023;-80
2024/02/22 11:33:11;;;;;;;0.05;0.05;;;14.80;66.00;;;;;;5080080;28;20040;-80
2024/02/22 11:35:37;;;;;;;0.00;0.00;;;15.00;65.00;;;;;;5069499;28;20586;-80
2024/02/22 11:38:04;;;;;;;0.00;0.00;;;15.20;64.50;;;;;;5083669;28;20035;-80
2024/02/22 11:40:34;;;;;;;0.00;0.00;;;15.40;63.80;;;;;;5083793;28;20016;-80
2024/02/22 11:43:00;;;;;;;0.00;0.00;;;15.40;63.50;;;;;;5077819;28;20028;-80
2024/02/22 11:45:27;;;;;;;0.00;0.00;;;15.30;63.10;;;;;;5070912;28;20025;-80
2024/02/22 11:47:52;;;;;;;0.03;0.03;;;15.30;63.10;;;;;;5077605;28;20028;-78
2024/02/22 11:50:20;;;;;;;0.00;0.00;;;15.40;62.80;;;;;;5073350;28;20035;-79
2024/02/22 11:52:46;;;;;;;0.10;0.10;;;15.20;63.90;;;;;;5084694;28;20032;-80
2024/02/22 11:55:12;;;;;;;0.00;0.00;;;15.10;62.90;;;;;;5080838;28;20032;-80
2024/02/22 11:57:38;;;;;;;0.00;0.00;;;15.10;63.70;;;;;;5084352;28;20068;-79
2024/02/22 12:00:04;;;;;;;0.00;0.00;;;15.00;63.50;;;;;;5070924;28;20593;-79
2024/02/22 12:02:35;;;;;;;0.00;0.00;;;14.90;64.10;;;;;;5071933;28;20059;-80
2024/02/22 12:05:03;;;;;;;0.00;0.00;;;14.70;64.40;;;;;;5091719;28;20139;-80
2024/02/22 12:07:30;;;;;;;0.00;0.00;;;14.50;65.20;;;;;;5085309;28;20021;-80
2024/02/22 12:09:55;;;;;;;0.57;0.57;;;14.50;65.30;;;;;;5073999;28;20488;-80
2024/02/22 12:12:26;;;;;;;0.10;0.10;;;14.60;66.00;;;;;;5082298;28;20062;-79
2024/02/22 12:15:04;;;;;;;0.00;0.00;;;14.50;66.00;;;;;;5082636;28;20082;-79
2024/02/22 12:17:34;;;;;;;0.05;0.05;;;14.30;66.50;;;;;;5081810;28;20056;-80
2024/02/22 12:20:02;;;;;;;0.00;0.00;;;14.20;66.70;;;;;;5083886;28;20544;-80
2024/02/22 12:22:31;;;;;;;0.00;0.00;;;14.20;66.80;;;;;;5079983;28;20102;-79
2024/02/22 12:24:58;;;;;;;0.30;0.30;;;14.10;66.50;;;;;;5084382;28;20029;-79
2024/02/22 12:27:24;;;;;;;2.72;2.22;;;14.10;66.70;;;;;;5075763;28;20021;-79
2024/02/22 12:29:50;;;;;;;0.00;0.00;;;14.10;66.40;;;;;;5078451;28;20028;-79
2024/02/22 12:32:16;;;;;;;0.00;0.00;;;14.10;67.70;;;;;;5080109;28;20032;-79
2024/02/22 12:34:42;;;;;;;0.00;0.00;;;14.00;67.50;;;;;;5075274;28;20026;-80
2024/02/22 12:37:08;;;;;;;0.00;0.00;;;14.00;67.60;;;;;;5076089;28;20021;-79
2024/02/22 12:39:34;;;;;;;0.53;0.37;;;14.00;67.30;;;;;;5080968;28;20032;-79
2024/02/22 12:42:05;;;;;;;0.00;0.00;;;13.90;67.50;;;;;;5071175;28;20020;-79
2024/02/22 12:44:30;;;;;;;0.00;0.00;;;14.00;67.80;;;;;;5071261;28;20058;-80
2024/02/22 12:46:58;;;;;;;0.00;0.00;;;13.90;67.50;;;;;;5069375;28;20533;-80